createdAt,value
2017-11-16T00:01:48.936Z,0.70
2017-11-16T00:04:17.464Z,0.70
2017-11-16T00:06:46.636Z,0.80
2017-11-16T00:09:15.032Z,0.80
2017-11-16T00:11:44.201Z,0.80
2017-11-16T00:14:12.588Z,0.80
2017-11-16T00:16:40.995Z,0.90
2017-11-16T00:19:10.132Z,0.80
2017-11-16T00:21:38.510Z,0.70
2017-11-16T00:24:06.912Z,0.60
2017-11-16T00:26:35.301Z,0.60
2017-11-16T00:29:04.042Z,0.70
2017-11-16T00:31:32.422Z,0.60
2017-11-16T00:34:00.801Z,0.60
2017-11-16T00:36:29.206Z,0.60
2017-11-16T00:38:57.583Z,0.60
2017-11-16T00:41:26.955Z,0.60
2017-11-16T00:43:55.327Z,0.60
2017-11-16T00:46:23.727Z,0.70
2017-11-16T00:48:52.136Z,0.70
2017-11-16T00:51:20.516Z,0.70
2017-11-16T00:53:48.891Z,0.70
2017-11-16T00:56:17.298Z,0.80
2017-11-16T00:58:46.469Z,0.80
2017-11-16T01:01:14.867Z,0.80
2017-11-16T01:03:44.046Z,0.90
2017-11-16T01:06:12.437Z,0.90
2017-11-16T01:08:41.613Z,0.70
2017-11-16T01:11:09.998Z,0.70
2017-11-16T01:13:38.513Z,0.80
2017-11-16T01:16:06.905Z,0.80
2017-11-16T01:18:35.282Z,0.90
2017-11-16T01:21:03.695Z,0.80
2017-11-16T01:23:32.083Z,0.80
2017-11-16T01:26:01.163Z,0.80
2017-11-16T01:28:29.547Z,0.90
2017-11-16T01:30:57.923Z,0.80
2017-11-16T01:33:26.331Z,0.90
2017-11-16T01:35:54.715Z,0.80
2017-11-16T01:38:23.896Z,0.80
2017-11-16T01:40:52.292Z,0.80
2017-11-16T01:43:21.433Z,0.80
2017-11-16T01:45:49.831Z,0.80
2017-11-16T01:48:18.195Z,0.90
2017-11-16T01:50:46.714Z,0.80
2017-11-16T01:53:15.089Z,0.80
2017-11-16T01:55:43.464Z,0.70
2017-11-16T01:58:11.870Z,0.70
2017-11-16T02:00:41.012Z,0.80
2017-11-16T02:03:09.412Z,0.80
2017-11-16T02:05:37.793Z,0.80
2017-11-16T02:08:06.207Z,0.80
2017-11-16T02:10:35.356Z,0.70
2017-11-16T02:13:03.764Z,0.70
2017-11-16T02:15:32.181Z,0.70
2017-11-16T02:18:00.556Z,0.70
2017-11-16T02:20:29.164Z,0.70
2017-11-16T02:22:57.552Z,0.70
2017-11-16T02:25:25.952Z,0.80
2017-11-16T02:27:54.360Z,0.70
2017-11-16T02:30:23.509Z,0.90
2017-11-16T02:32:52.037Z,0.80
2017-11-16T02:35:21.286Z,0.80
2017-11-16T02:37:49.669Z,0.70
2017-11-16T02:40:18.083Z,0.80
2017-11-16T02:42:47.250Z,0.80
2017-11-16T02:45:15.945Z,0.80
2017-11-16T02:47:44.345Z,0.90
2017-11-16T02:50:13.491Z,0.90
2017-11-16T02:52:41.910Z,0.90
2017-11-16T02:55:10.299Z,0.90
2017-11-16T02:57:38.721Z,1.00
2017-11-16T03:00:07.102Z,0.90
2017-11-16T03:02:35.475Z,0.90
2017-11-16T03:05:03.904Z,0.80
2017-11-16T03:07:32.281Z,0.80
2017-11-16T03:10:00.943Z,0.90
2017-11-16T03:12:29.336Z,1.00
2017-11-16T03:14:57.726Z,0.90
2017-11-16T03:17:26.171Z,1.00
2017-11-16T03:19:54.528Z,1.00
2017-11-16T03:22:22.952Z,1.00
2017-11-16T03:24:51.332Z,1.10
2017-11-16T03:27:19.711Z,1.10
2017-11-16T03:29:48.134Z,1.20
2017-11-16T03:32:16.511Z,1.10
2017-11-16T03:34:44.927Z,1.10
2017-11-16T03:37:13.299Z,1.00
2017-11-16T03:39:41.705Z,1.10
2017-11-16T03:42:10.127Z,1.10
2017-11-16T03:44:38.528Z,1.20
2017-11-16T03:47:07.024Z,1.20
2017-11-16T03:49:35.406Z,1.20
2017-11-16T03:52:03.786Z,1.20
2017-11-16T03:54:32.182Z,1.30
2017-11-16T03:57:00.578Z,1.40
2017-11-16T03:59:29.097Z,1.40
2017-11-16T04:01:57.470Z,1.50
2017-11-16T04:04:25.839Z,1.40
2017-11-16T04:06:54.231Z,1.30
2017-11-16T04:09:22.611Z,1.20
2017-11-16T04:11:51.215Z,1.30
2017-11-16T04:14:19.581Z,1.30
2017-11-16T04:16:47.958Z,1.30
2017-11-16T04:19:16.366Z,1.30
2017-11-16T04:21:44.768Z,1.30
2017-11-16T04:24:13.403Z,1.30
2017-11-16T04:26:41.912Z,1.30
2017-11-16T04:29:10.299Z,1.30
2017-11-16T04:31:38.698Z,1.20
2017-11-16T04:34:07.839Z,1.20
2017-11-16T04:36:36.496Z,1.20
2017-11-16T04:39:04.889Z,1.30
2017-11-16T04:41:33.254Z,1.30
2017-11-16T04:44:01.648Z,1.30
2017-11-16T04:46:30.028Z,1.20
2017-11-16T04:48:58.421Z,1.20
2017-11-16T04:51:26.794Z,1.10
2017-11-16T04:53:55.182Z,1.10
2017-11-16T04:56:23.596Z,1.20
2017-11-16T04:58:51.971Z,1.10
2017-11-16T05:01:20.398Z,1.10
2017-11-16T05:03:48.766Z,1.10
2017-11-16T05:06:17.147Z,1.10
2017-11-16T05:08:45.579Z,1.10
2017-11-16T05:11:13.946Z,1.10
2017-11-16T05:13:42.624Z,1.10
2017-11-16T05:16:11.007Z,1.10
2017-11-16T05:18:39.373Z,1.10
2017-11-16T05:21:07.764Z,1.10
2017-11-16T05:23:36.159Z,1.10
2017-11-16T05:26:04.670Z,1.20
2017-11-16T05:28:33.045Z,1.30
2017-11-16T05:31:02.192Z,1.30
2017-11-16T05:33:30.612Z,1.30
2017-11-16T05:35:59.742Z,1.30
2017-11-16T05:38:28.159Z,1.20
2017-11-16T05:40:56.528Z,1.10
2017-11-16T05:43:24.895Z,1.10
2017-11-16T05:45:53.285Z,1.20
2017-11-16T05:48:21.655Z,1.10
2017-11-16T05:50:50.190Z,1.00
2017-11-16T05:53:19.339Z,1.10
2017-11-16T05:55:48.476Z,1.10
2017-11-16T05:58:17.640Z,1.00
2017-11-16T06:00:46.015Z,1.00
2017-11-16T06:03:14.678Z,1.10
2017-11-16T06:05:43.071Z,1.10
2017-11-16T06:08:11.444Z,1.00
2017-11-16T06:10:39.845Z,1.00
2017-11-16T06:13:08.221Z,0.90
2017-11-16T06:15:36.984Z,0.90
2017-11-16T06:18:05.357Z,0.90
2017-11-16T06:20:33.735Z,0.90
2017-11-16T06:23:02.129Z,0.90
2017-11-16T06:25:30.513Z,0.90
2017-11-16T06:27:58.946Z,1.00
2017-11-16T06:30:28.083Z,0.90
2017-11-16T06:32:56.450Z,0.90
2017-11-16T06:35:24.834Z,1.00
2017-11-16T06:37:53.228Z,1.10
2017-11-16T06:40:21.651Z,1.10
2017-11-16T06:42:50.787Z,1.30
2017-11-16T06:45:19.211Z,1.20
2017-11-16T06:47:47.608Z,1.40
2017-11-16T06:50:15.976Z,1.50
2017-11-16T06:52:45.427Z,1.50
2017-11-16T06:55:13.801Z,1.40
2017-11-16T06:57:42.175Z,1.60
2017-11-16T07:00:10.578Z,1.60
2017-11-16T07:02:38.950Z,1.50
2017-11-16T07:05:08.351Z,1.50
2017-11-16T07:07:36.727Z,1.50
2017-11-16T07:10:05.106Z,1.30
2017-11-16T07:12:33.491Z,1.30
2017-11-16T07:15:01.892Z,1.20
2017-11-16T07:17:30.545Z,1.10
2017-11-16T07:19:58.932Z,1.30
2017-11-16T07:22:27.307Z,1.30
2017-11-16T07:24:55.709Z,1.50
2017-11-16T07:27:24.076Z,1.30
2017-11-16T07:29:52.557Z,1.40
2017-11-16T07:32:20.966Z,1.50
2017-11-16T07:34:49.337Z,1.40
2017-11-16T07:37:17.735Z,1.30
2017-11-16T07:39:46.890Z,1.50
2017-11-16T07:42:15.387Z,1.50
2017-11-16T07:44:43.772Z,1.60
2017-11-16T07:47:12.164Z,1.70
2017-11-16T07:49:41.357Z,1.60
2017-11-16T07:52:10.512Z,1.50
2017-11-16T07:54:39.021Z,1.50
2017-11-16T07:57:07.398Z,1.40
2017-11-16T07:59:35.775Z,1.50
2017-11-16T08:02:04.168Z,1.60
2017-11-16T08:04:33.328Z,1.50
2017-11-16T08:07:02.106Z,1.40
2017-11-16T08:09:30.474Z,1.40
2017-11-16T08:11:58.866Z,1.40
2017-11-16T08:14:27.268Z,1.40
2017-11-16T08:16:55.648Z,1.40
2017-11-16T08:19:24.146Z,1.30
2017-11-16T08:21:52.515Z,1.20
2017-11-16T08:24:20.883Z,1.30
2017-11-16T08:26:49.317Z,1.30
2017-11-16T08:29:17.695Z,1.20
2017-11-16T08:31:46.127Z,1.20
2017-11-16T08:34:14.499Z,1.10
2017-11-16T08:36:42.882Z,1.20
2017-11-16T08:39:11.340Z,1.00
2017-11-16T08:41:39.720Z,0.90
2017-11-16T08:44:08.198Z,0.90
2017-11-16T08:46:36.582Z,0.90
2017-11-16T08:49:04.976Z,0.90
2017-11-16T08:51:33.401Z,1.00
2017-11-16T08:54:01.764Z,1.20
2017-11-16T08:56:31.071Z,1.20
2017-11-16T08:58:59.472Z,1.20
2017-11-16T09:01:27.853Z,1.30
2017-11-16T09:03:56.257Z,1.20
2017-11-16T09:06:24.638Z,1.10
2017-11-16T09:08:53.309Z,1.20
2017-11-16T09:11:21.701Z,1.20
2017-11-16T09:13:50.115Z,1.30
2017-11-16T09:16:19.314Z,1.30
2017-11-16T09:18:48.488Z,1.40
2017-11-16T09:21:17.027Z,1.40
2017-11-16T09:23:45.415Z,1.50
2017-11-16T09:26:13.802Z,1.30
2017-11-16T09:28:42.220Z,1.30
2017-11-16T09:31:10.599Z,1.30
2017-11-16T09:33:38.992Z,1.50
2017-11-16T09:36:08.167Z,1.70
2017-11-16T09:38:36.592Z,1.70
2017-11-16T09:41:05.006Z,1.40
2017-11-16T09:43:33.428Z,1.40
2017-11-16T09:46:02.568Z,1.30
2017-11-16T09:48:30.970Z,1.30
2017-11-16T09:50:59.369Z,1.30
2017-11-16T09:53:27.735Z,1.40
2017-11-16T09:55:57.637Z,1.40
2017-11-16T09:58:26.009Z,1.50
2017-11-16T10:00:54.453Z,1.60
2017-11-16T10:03:22.829Z,2.00
2017-11-16T10:05:51.204Z,1.90
2017-11-16T10:08:19.604Z,1.70
2017-11-16T10:10:47.980Z,1.70
2017-11-16T10:13:16.396Z,1.70
2017-11-16T10:15:44.778Z,2.00
2017-11-16T10:18:13.236Z,1.90
2017-11-16T10:20:41.631Z,2.10
2017-11-16T10:23:10.094Z,2.00
2017-11-16T10:25:38.768Z,2.10
2017-11-16T10:28:07.148Z,2.30
2017-11-16T10:30:35.640Z,2.20
2017-11-16T10:33:04.051Z,2.30
2017-11-16T10:35:32.436Z,2.10
2017-11-16T10:38:00.977Z,1.90
2017-11-16T10:40:29.356Z,1.90
2017-11-16T10:42:57.777Z,2.10
2017-11-16T10:45:26.167Z,2.10
2017-11-16T10:47:55.418Z,2.10
2017-11-16T10:50:23.996Z,2.10
2017-11-16T10:52:52.385Z,2.20
2017-11-16T10:55:20.746Z,2.00
2017-11-16T10:57:49.911Z,2.20
2017-11-16T11:00:18.289Z,2.10
2017-11-16T11:02:46.795Z,2.20
2017-11-16T11:05:15.176Z,2.10
2017-11-16T11:07:43.557Z,2.00
2017-11-16T11:10:11.951Z,2.00
2017-11-16T11:12:40.331Z,2.30
2017-11-16T11:15:08.996Z,2.40
2017-11-16T11:17:37.371Z,2.40
2017-11-16T11:20:05.752Z,2.30
2017-11-16T11:22:34.146Z,2.50
2017-11-16T11:25:02.536Z,2.50
2017-11-16T11:27:30.954Z,2.40
2017-11-16T11:30:00.105Z,2.10
2017-11-16T11:32:28.488Z,2.10
2017-11-16T11:34:56.887Z,2.00
2017-11-16T11:37:26.143Z,2.20
2017-11-16T11:39:54.703Z,2.30
2017-11-16T11:42:23.093Z,2.50
2017-11-16T11:44:51.493Z,2.50
2017-11-16T11:47:19.891Z,2.50
2017-11-16T11:49:48.292Z,2.60
2017-11-16T11:52:17.032Z,2.70
2017-11-16T11:54:45.395Z,2.60
2017-11-16T11:57:13.778Z,2.50
2017-11-16T11:59:42.168Z,2.60
2017-11-16T12:02:10.535Z,2.30
2017-11-16T12:04:39.069Z,2.30
2017-11-16T12:07:07.444Z,2.50
2017-11-16T12:09:35.811Z,2.50
2017-11-16T12:12:04.270Z,2.70
2017-11-16T12:14:32.752Z,2.80
2017-11-16T12:17:01.272Z,2.80
2017-11-16T12:19:30.408Z,2.60
2017-11-16T12:21:58.793Z,2.60
2017-11-16T12:24:27.200Z,2.80
2017-11-16T12:26:55.568Z,2.80
2017-11-16T12:29:24.101Z,2.80
2017-11-16T12:31:53.243Z,2.70
2017-11-16T12:34:21.623Z,2.70
2017-11-16T12:36:50.024Z,2.90
2017-11-16T12:39:18.420Z,2.90
2017-11-16T12:41:47.224Z,2.80
2017-11-16T12:44:15.603Z,2.70
2017-11-16T12:46:43.992Z,2.50
2017-11-16T12:49:12.407Z,2.80
2017-11-16T12:51:40.831Z,2.70
2017-11-16T12:54:10.279Z,2.80
2017-11-16T12:56:38.680Z,2.70
2017-11-16T12:59:07.050Z,2.80
2017-11-16T13:01:35.451Z,2.50
2017-11-16T13:04:03.838Z,2.40
2017-11-16T13:06:32.344Z,2.50
2017-11-16T13:09:00.731Z,2.60
2017-11-16T13:11:29.106Z,2.20
2017-11-16T13:13:57.499Z,2.10
2017-11-16T13:16:25.870Z,2.10
2017-11-16T13:18:54.679Z,2.00
2017-11-16T13:21:23.051Z,1.90
2017-11-16T13:23:51.433Z,1.90
2017-11-16T13:26:19.832Z,1.90
2017-11-16T13:28:48.212Z,1.80
2017-11-16T13:31:16.637Z,1.90
2017-11-16T13:33:45.777Z,2.00
2017-11-16T13:36:14.144Z,2.00
2017-11-16T13:38:42.563Z,2.00
2017-11-16T13:41:11.012Z,2.20
2017-11-16T13:43:39.799Z,2.40
2017-11-16T13:46:08.202Z,2.40
2017-11-16T13:48:36.580Z,2.40
2017-11-16T13:51:04.975Z,2.30
2017-11-16T13:53:34.116Z,2.40
2017-11-16T13:56:02.527Z,2.30
2017-11-16T13:58:30.902Z,2.40
2017-11-16T14:00:59.313Z,2.50
2017-11-16T14:03:28.473Z,2.50
2017-11-16T14:05:56.843Z,2.40
2017-11-16T14:08:25.442Z,2.50
2017-11-16T14:10:53.827Z,2.40
2017-11-16T14:13:22.204Z,2.30
2017-11-16T14:15:50.598Z,2.30
2017-11-16T14:18:19.001Z,2.20
2017-11-16T14:20:48.340Z,2.20
2017-11-16T14:23:16.713Z,2.10
2017-11-16T14:25:45.099Z,2.10
2017-11-16T14:28:13.501Z,2.00
2017-11-16T14:30:42.779Z,2.00
2017-11-16T14:33:11.211Z,2.00
2017-11-16T14:35:40.356Z,2.00
2017-11-16T14:38:09.543Z,2.00
2017-11-16T14:40:37.942Z,2.00
2017-11-16T14:43:06.335Z,2.00
2017-11-16T14:45:35.189Z,2.00
2017-11-16T14:48:03.612Z,2.00
2017-11-16T14:50:32.057Z,2.00
2017-11-16T14:53:01.241Z,2.20
2017-11-16T14:55:29.642Z,2.10
2017-11-16T14:57:58.422Z,2.10
2017-11-16T15:00:26.823Z,2.10
2017-11-16T15:02:55.230Z,2.20
2017-11-16T15:05:24.413Z,2.10
2017-11-16T15:07:52.795Z,2.10
2017-11-16T15:10:21.205Z,2.10
2017-11-16T15:12:49.603Z,2.00
2017-11-16T15:15:18.031Z,1.90
2017-11-16T15:17:46.433Z,1.90
2017-11-16T15:20:14.849Z,1.90
2017-11-16T15:22:43.632Z,1.80
2017-11-16T15:25:12.044Z,1.70
2017-11-16T15:27:40.968Z,1.70
2017-11-16T15:30:09.708Z,1.60
2017-11-16T15:32:38.122Z,1.50
2017-11-16T15:35:07.308Z,1.60
2017-11-16T15:37:35.684Z,1.50
2017-11-16T15:40:04.053Z,1.50
2017-11-16T15:42:32.867Z,1.70
2017-11-16T15:45:02.012Z,1.70
2017-11-16T15:47:30.592Z,1.70
2017-11-16T15:49:58.980Z,1.80
2017-11-16T15:52:27.356Z,1.90
2017-11-16T15:54:55.760Z,1.70
2017-11-16T15:57:24.140Z,1.60
2017-11-16T15:59:52.655Z,1.50
2017-11-16T16:02:21.045Z,1.50
2017-11-16T16:04:49.420Z,1.60
2017-11-16T16:07:17.825Z,1.70
2017-11-16T16:09:46.264Z,1.80
2017-11-16T16:12:15.535Z,1.70
2017-11-16T16:14:43.915Z,1.70
2017-11-16T16:17:12.296Z,1.60
2017-11-16T16:19:40.703Z,1.50
2017-11-16T16:22:09.835Z,1.40
2017-11-16T16:24:38.460Z,1.40
2017-11-16T16:27:06.893Z,1.40
2017-11-16T16:29:35.266Z,1.30
2017-11-16T16:32:03.662Z,1.30
2017-11-16T16:34:32.075Z,1.50
2017-11-16T16:37:00.760Z,1.50
2017-11-16T16:39:29.971Z,1.30
2017-11-16T16:41:59.126Z,1.20
2017-11-16T16:44:27.559Z,1.20
2017-11-16T16:46:56.754Z,1.20
2017-11-16T16:49:26.791Z,1.20
2017-11-16T16:51:56.192Z,1.20
2017-11-16T16:54:24.582Z,1.20
2017-11-16T16:56:53.117Z,1.20
2017-11-16T16:59:21.521Z,1.20
2017-11-16T17:01:50.118Z,1.20
2017-11-16T17:04:18.590Z,1.30
2017-11-16T17:06:47.191Z,1.30
2017-11-16T17:09:15.602Z,1.30
2017-11-16T17:11:44.065Z,1.30
2017-11-16T17:14:12.852Z,1.20
2017-11-16T17:16:41.341Z,1.30
2017-11-16T17:19:09.729Z,1.30
2017-11-16T17:21:38.155Z,1.30
2017-11-16T17:24:06.543Z,1.30
2017-11-16T17:26:34.979Z,1.30
2017-11-16T17:29:03.420Z,1.30
2017-11-16T17:31:31.919Z,1.60
2017-11-16T17:34:00.312Z,1.60
2017-11-16T17:36:28.755Z,1.50
2017-11-16T17:38:57.317Z,1.50
2017-11-16T17:41:25.845Z,1.50
2017-11-16T17:43:54.231Z,1.30
2017-11-16T17:46:22.859Z,1.30
2017-11-16T17:48:51.276Z,1.40
2017-11-16T17:51:19.653Z,1.40
2017-11-16T17:53:48.071Z,1.30
2017-11-16T17:56:16.492Z,1.70
2017-11-16T17:58:44.868Z,1.60
2017-11-16T18:01:13.273Z,1.50
2017-11-16T18:03:41.656Z,1.50
2017-11-16T18:06:10.529Z,1.50
2017-11-16T18:08:38.900Z,1.60
2017-11-16T18:11:07.282Z,1.40
2017-11-16T18:13:35.755Z,1.30
2017-11-16T18:16:04.237Z,1.40
2017-11-16T18:18:32.680Z,1.30
2017-11-16T18:21:01.900Z,1.30
2017-11-16T18:23:31.101Z,1.30
2017-11-16T18:25:59.516Z,1.30
2017-11-16T18:28:28.112Z,1.50
2017-11-16T18:30:57.048Z,1.60
2017-11-16T18:33:25.581Z,1.60
2017-11-16T18:35:54.414Z,1.70
2017-11-16T18:38:22.880Z,1.50
2017-11-16T18:40:52.020Z,1.30
2017-11-16T18:43:20.755Z,1.30
2017-11-16T18:45:49.308Z,1.40
2017-11-16T18:48:17.710Z,1.30
2017-11-16T18:50:46.909Z,1.20
2017-11-16T18:53:15.385Z,1.10
2017-11-16T18:55:45.098Z,1.20
2017-11-16T18:58:13.728Z,1.10
2017-11-16T19:00:42.193Z,1.10
2017-11-16T19:03:11.355Z,1.10
2017-11-16T19:05:39.837Z,1.10
2017-11-16T19:08:08.710Z,1.10
2017-11-16T19:10:37.171Z,1.10
2017-11-16T19:13:05.589Z,1.10
2017-11-16T19:15:34.326Z,1.10
2017-11-16T19:18:03.064Z,1.20
2017-11-16T19:20:32.111Z,1.10
2017-11-16T19:23:00.650Z,1.20
2017-11-16T19:25:29.560Z,1.20
2017-11-16T19:27:58.043Z,1.20
2017-11-16T19:30:26.538Z,1.20
2017-11-16T19:32:55.083Z,1.20
2017-11-16T19:35:23.758Z,1.10
2017-11-16T19:37:53.216Z,0.90
2017-11-16T19:40:21.986Z,0.90
2017-11-16T19:42:50.647Z,0.90
2017-11-16T19:45:19.701Z,0.90
2017-11-16T19:47:48.162Z,1.00
2017-11-16T19:50:16.614Z,1.00
2017-11-16T19:52:46.309Z,1.00
2017-11-16T19:55:15.495Z,1.00
2017-11-16T19:57:44.823Z,0.90
2017-11-16T20:00:14.195Z,0.90
2017-11-16T20:02:43.464Z,0.90
2017-11-16T20:05:12.203Z,0.90
2017-11-16T20:07:41.710Z,0.90
2017-11-16T20:10:11.884Z,0.90
2017-11-16T20:12:41.339Z,0.90
2017-11-16T20:15:10.188Z,0.90
2017-11-16T20:17:39.846Z,0.90
2017-11-16T20:20:08.704Z,0.80
2017-11-16T20:22:37.843Z,0.80
2017-11-16T20:25:06.621Z,0.80
2017-11-16T20:27:35.747Z,0.80
2017-11-16T20:30:04.788Z,0.80
2017-11-16T20:32:33.655Z,0.80
2017-11-16T20:35:03.662Z,0.80
2017-11-16T20:37:38.045Z,0.80
2017-11-16T20:40:12.862Z,0.80
2017-11-16T20:42:47.576Z,0.80
2017-11-16T20:48:42.960Z,0.80
2017-11-16T20:51:18.225Z,0.80
2017-11-16T20:54:01.939Z,0.80
2017-11-16T20:56:31.083Z,0.80
2017-11-16T20:59:00.049Z,0.90
2017-11-16T21:01:28.833Z,0.90
2017-11-16T21:03:58.644Z,0.90
2017-11-16T21:06:28.540Z,0.90
2017-11-16T21:08:58.639Z,0.90
2017-11-16T21:11:27.679Z,0.80
2017-11-16T21:13:56.505Z,0.90
2017-11-16T21:16:25.529Z,0.90
2017-11-16T21:18:54.448Z,0.90
2017-11-16T21:21:24.380Z,1.00
2017-11-16T21:23:53.951Z,1.00
2017-11-16T21:26:23.648Z,0.90
2017-11-16T21:28:52.589Z,0.90
2017-11-16T21:31:21.574Z,0.90
2017-11-16T21:33:50.772Z,0.80
2017-11-16T21:36:19.665Z,0.90
2017-11-16T21:38:49.413Z,0.90
2017-11-16T21:41:19.198Z,0.90
2017-11-16T21:43:48.295Z,0.90
2017-11-16T21:46:17.132Z,0.80
2017-11-16T21:48:46.818Z,0.80
2017-11-16T21:51:16.484Z,0.80
2017-11-16T21:53:45.319Z,0.80
2017-11-16T21:56:14.355Z,0.80
2017-11-16T21:58:43.226Z,0.80
2017-11-16T22:01:12.525Z,0.80
2017-11-16T22:03:41.548Z,0.80
2017-11-16T22:06:10.345Z,0.90
2017-11-16T22:08:39.251Z,0.90
2017-11-16T22:11:08.266Z,0.80
2017-11-16T22:13:37.072Z,0.80
2017-11-16T22:16:05.964Z,0.80
2017-11-16T22:18:34.826Z,0.80
2017-11-16T22:21:03.775Z,0.80
2017-11-16T22:23:33.264Z,0.80
2017-11-16T22:26:02.184Z,0.80
2017-11-16T22:28:30.932Z,0.80
2017-11-16T22:30:59.409Z,0.80
2017-11-16T22:33:27.927Z,0.80
2017-11-16T22:35:56.426Z,0.90
2017-11-16T22:38:25.723Z,0.90
2017-11-16T22:40:55.081Z,0.90
2017-11-16T22:43:24.379Z,0.90
2017-11-16T22:45:53.027Z,1.00
2017-11-16T22:48:21.612Z,0.90
2017-11-16T22:50:50.163Z,0.90
2017-11-16T22:53:18.542Z,0.90
2017-11-16T22:55:46.938Z,0.90
2017-11-16T22:58:16.100Z,1.00
2017-11-16T23:00:44.532Z,0.90
2017-11-16T23:03:13.378Z,0.90
2017-11-16T23:05:42.555Z,1.00
2017-11-16T23:08:10.940Z,1.00
2017-11-16T23:10:39.350Z,0.90
2017-11-16T23:13:08.491Z,0.90
2017-11-16T23:15:37.204Z,0.90
2017-11-16T23:18:05.567Z,0.90
2017-11-16T23:20:33.940Z,0.90
2017-11-16T23:23:02.438Z,0.90
2017-11-16T23:25:30.820Z,0.90
2017-11-16T23:27:59.490Z,0.90
2017-11-16T23:30:27.888Z,0.90
2017-11-16T23:32:56.268Z,0.90
2017-11-16T23:35:24.672Z,0.90
2017-11-16T23:37:53.804Z,0.90
2017-11-16T23:40:22.599Z,0.90
2017-11-16T23:42:50.963Z,1.00
2017-11-16T23:45:19.335Z,1.00
2017-11-16T23:47:47.746Z,1.00
2017-11-16T23:50:16.113Z,1.20
2017-11-16T23:52:44.903Z,1.10
2017-11-16T23:55:13.290Z,1.10
2017-11-16T23:57:41.659Z,1.10
